sensor_id;sensor_type;location;lat;lon;timestamp;temperature;humidity
13944;DHT22;7044;53.286;8.534;2022-10-23T00:00:12;12.40;99.90
13944;DHT22;7044;53.286;8.534;2022-10-23T00:02:39;12.40;99.90
13944;DHT22;7044;53.286;8.534;2022-10-23T00:05:06;12.40;99.90
13944;DHT22;7044;53.286;8.534;2022-10-23T00:07:33;12.40;99.90
13944;DHT22;7044;53.286;8.534;2022-10-23T00:10:00;12.40;99.90
13944;DHT22;7044;53.286;8.534;2022-10-23T00:12:28;12.30;99.90
13944;DHT22;7044;53.286;8.534;2022-10-23T00:14:55;12.40;99.90
13944;DHT22;7044;53.286;8.534;2022-10-23T00:17:22;12.40;99.90
13944;DHT22;7044;53.286;8.534;2022-10-23T00:19:49;12.30;99.90
13944;DHT22;7044;53.286;8.534;2022-10-23T00:22:16;12.30;99.90
13944;DHT22;7044;53.286;8.534;2022-10-23T00:24:43;12.30;99.90
13944;DHT22;7044;53.286;8.534;2022-10-23T00:27:09;12.30;99.90
13944;DHT22;7044;53.286;8.534;2022-10-23T00:29:38;12.30;99.90
13944;DHT22;7044;53.286;8.534;2022-10-23T00:32:05;12.30;99.90
13944;DHT22;7044;53.286;8.534;2022-10-23T00:34:31;12.20;99.90
13944;DHT22;7044;53.286;8.534;2022-10-23T00:36:58;12.20;99.90
13944;DHT22;7044;53.286;8.534;2022-10-23T00:39:25;12.20;99.90
13944;DHT22;7044;53.286;8.534;2022-10-23T00:41:52;12.20;99.90
13944;DHT22;7044;53.286;8.534;2022-10-23T00:47:24;12.20;99.90
13944;DHT22;7044;53.286;8.534;2022-10-23T00:49:51;12.20;99.90
13944;DHT22;7044;53.286;8.534;2022-10-23T00:52:18;12.20;99.90
13944;DHT22;7044;53.286;8.534;2022-10-23T00:54:45;12.10;99.90
13944;DHT22;7044;53.286;8.534;2022-10-23T00:57:14;12.10;99.90
13944;DHT22;7044;53.286;8.534;2022-10-23T00:59:41;12.10;99.90
13944;DHT22;7044;53.286;8.534;2022-10-23T01:02:08;12.10;99.90
13944;DHT22;7044;53.286;8.534;2022-10-23T01:04:37;12.10;99.90
13944;DHT22;7044;53.286;8.534;2022-10-23T01:07:09;12.10;99.90
13944;DHT22;7044;53.286;8.534;2022-10-23T01:09:38;12.00;99.90
13944;DHT22;7044;53.286;8.534;2022-10-23T01:12:14;12.10;99.90
13944;DHT22;7044;53.286;8.534;2022-10-23T01:14:46;12.10;99.90
13944;DHT22;7044;53.286;8.534;2022-10-23T01:17:21;12.10;99.90
13944;DHT22;7044;53.286;8.534;2022-10-23T01:20:00;12.10;99.90
13944;DHT22;7044;53.286;8.534;2022-10-23T01:22:43;12.10;99.90
13944;DHT22;7044;53.286;8.534;2022-10-23T01:25:22;12.10;99.90
13944;DHT22;7044;53.286;8.534;2022-10-23T01:27:56;12.10;99.90
13944;DHT22;7044;53.286;8.534;2022-10-23T01:30:25;12.10;99.90
13944;DHT22;7044;53.286;8.534;2022-10-23T01:32:55;12.10;99.90
13944;DHT22;7044;53.286;8.534;2022-10-23T01:35:26;12.00;99.90
13944;DHT22;7044;53.286;8.534;2022-10-23T01:37:59;12.10;99.90
13944;DHT22;7044;53.286;8.534;2022-10-23T01:40:32;12.10;99.90
13944;DHT22;7044;53.286;8.534;2022-10-23T01:43:05;12.10;99.90
13944;DHT22;7044;53.286;8.534;2022-10-23T01:45:39;12.30;99.90
13944;DHT22;7044;53.286;8.534;2022-10-23T01:48:08;12.10;99.90
13944;DHT22;7044;53.286;8.534;2022-10-23T01:50:37;12.10;99.90
13944;DHT22;7044;53.286;8.534;2022-10-23T01:53:05;12.10;99.90
13944;DHT22;7044;53.286;8.534;2022-10-23T01:55:32;12.00;99.90
13944;DHT22;7044;53.286;8.534;2022-10-23T01:58:00;12.00;99.90
13944;DHT22;7044;53.286;8.534;2022-10-23T02:00:29;12.00;99.90
13944;DHT22;7044;53.286;8.534;2022-10-23T02:02:56;12.00;99.90
13944;DHT22;7044;53.286;8.534;2022-10-23T02:05:26;11.90;99.90
13944;DHT22;7044;53.286;8.534;2022-10-23T02:07:54;11.90;99.90
13944;DHT22;7044;53.286;8.534;2022-10-23T02:10:22;11.90;99.90
13944;DHT22;7044;53.286;8.534;2022-10-23T02:13:00;11.70;99.90
13944;DHT22;7044;53.286;8.534;2022-10-23T02:15:32;11.70;99.90
13944;DHT22;7044;53.286;8.534;2022-10-23T02:18:05;11.70;99.90
13944;DHT22;7044;53.286;8.534;2022-10-23T02:20:37;11.60;99.90
13944;DHT22;7044;53.286;8.534;2022-10-23T02:23:14;11.60;99.90
13944;DHT22;7044;53.286;8.534;2022-10-23T02:25:49;11.50;99.90
13944;DHT22;7044;53.286;8.534;2022-10-23T02:28:21;11.40;99.90
13944;DHT22;7044;53.286;8.534;2022-10-23T02:30:51;11.40;99.90
13944;DHT22;7044;53.286;8.534;2022-10-23T02:33:18;11.40;99.90
13944;DHT22;7044;53.286;8.534;2022-10-23T02:35:46;11.40;99.90
13944;DHT22;7044;53.286;8.534;2022-10-23T02:38:29;11.40;99.90
13944;DHT22;7044;53.286;8.534;2022-10-23T02:40:59;11.40;99.90
13944;DHT22;7044;53.286;8.534;2022-10-23T02:43:35;11.40;99.90
13944;DHT22;7044;53.286;8.534;2022-10-23T02:46:11;11.40;99.90
13944;DHT22;7044;53.286;8.534;2022-10-23T02:48:43;11.40;99.90
13944;DHT22;7044;53.286;8.534;2022-10-23T02:51:19;11.40;99.90
13944;DHT22;7044;53.286;8.534;2022-10-23T02:53:53;11.40;99.90
13944;DHT22;7044;53.286;8.534;2022-10-23T02:56:27;11.40;99.90
13944;DHT22;7044;53.286;8.534;2022-10-23T02:59:01;11.40;99.90
13944;DHT22;7044;53.286;8.534;2022-10-23T03:01:37;11.40;99.90
13944;DHT22;7044;53.286;8.534;2022-10-23T03:04:05;11.30;99.90
13944;DHT22;7044;53.286;8.534;2022-10-23T03:06:34;11.40;99.90
13944;DHT22;7044;53.286;8.534;2022-10-23T03:09:04;11.30;99.90
13944;DHT22;7044;53.286;8.534;2022-10-23T03:11:31;11.30;99.90
13944;DHT22;7044;53.286;8.534;2022-10-23T03:13:58;11.30;99.90
13944;DHT22;7044;53.286;8.534;2022-10-23T03:16:25;11.40;99.90
13944;DHT22;7044;53.286;8.534;2022-10-23T03:18:54;11.50;99.90
13944;DHT22;7044;53.286;8.534;2022-10-23T03:21:21;11.60;99.90
13944;DHT22;7044;53.286;8.534;2022-10-23T03:23:48;11.60;99.90
13944;DHT22;7044;53.286;8.534;2022-10-23T03:26:15;11.50;99.90
13944;DHT22;7044;53.286;8.534;2022-10-23T03:28:42;11.40;99.90
13944;DHT22;7044;53.286;8.534;2022-10-23T03:31:08;11.50;99.90
13944;DHT22;7044;53.286;8.534;2022-10-23T03:33:35;11.50;99.90
13944;DHT22;7044;53.286;8.534;2022-10-23T03:36:04;11.50;99.90
13944;DHT22;7044;53.286;8.534;2022-10-23T03:38:31;11.50;99.90
13944;DHT22;7044;53.286;8.534;2022-10-23T03:40:58;11.50;99.90
13944;DHT22;7044;53.286;8.534;2022-10-23T03:43:25;11.60;99.90
13944;DHT22;7044;53.286;8.534;2022-10-23T03:45:52;11.50;99.90
13944;DHT22;7044;53.286;8.534;2022-10-23T03:48:19;11.40;99.90
13944;DHT22;7044;53.286;8.534;2022-10-23T03:50:46;11.50;99.90
13944;DHT22;7044;53.286;8.534;2022-10-23T03:53:14;11.60;99.90
13944;DHT22;7044;53.286;8.534;2022-10-23T03:55:41;11.70;99.90
13944;DHT22;7044;53.286;8.534;2022-10-23T03:58:09;11.80;99.90
13944;DHT22;7044;53.286;8.534;2022-10-23T04:00:36;11.80;99.90
13944;DHT22;7044;53.286;8.534;2022-10-23T04:03:03;11.80;99.90
13944;DHT22;7044;53.286;8.534;2022-10-23T04:05:29;11.80;99.90
13944;DHT22;7044;53.286;8.534;2022-10-23T04:07:56;11.90;99.90
13944;DHT22;7044;53.286;8.534;2022-10-23T04:10:24;11.80;99.90
13944;DHT22;7044;53.286;8.534;2022-10-23T04:12:51;11.80;99.90
13944;DHT22;7044;53.286;8.534;2022-10-23T04:15:18;11.80;99.90
13944;DHT22;7044;53.286;8.534;2022-10-23T04:17:45;11.80;99.90
13944;DHT22;7044;53.286;8.534;2022-10-23T04:20:11;11.70;99.90
13944;DHT22;7044;53.286;8.534;2022-10-23T04:22:38;11.60;99.90
13944;DHT22;7044;53.286;8.534;2022-10-23T04:25:05;11.60;99.90
13944;DHT22;7044;53.286;8.534;2022-10-23T04:27:33;11.70;99.90
13944;DHT22;7044;53.286;8.534;2022-10-23T04:30:00;11.80;99.90
13944;DHT22;7044;53.286;8.534;2022-10-23T04:32:28;11.70;99.90
13944;DHT22;7044;53.286;8.534;2022-10-23T04:34:55;11.70;99.90
13944;DHT22;7044;53.286;8.534;2022-10-23T04:37:22;11.60;99.90
13944;DHT22;7044;53.286;8.534;2022-10-23T04:39:49;11.50;99.90
13944;DHT22;7044;53.286;8.534;2022-10-23T04:42:16;11.50;99.90
13944;DHT22;7044;53.286;8.534;2022-10-23T04:44:44;11.50;99.90
13944;DHT22;7044;53.286;8.534;2022-10-23T04:47:10;11.50;99.90
13944;DHT22;7044;53.286;8.534;2022-10-23T04:49:37;11.50;99.90
13944;DHT22;7044;53.286;8.534;2022-10-23T04:52:04;11.50;99.90
13944;DHT22;7044;53.286;8.534;2022-10-23T04:54:34;11.50;99.90
13944;DHT22;7044;53.286;8.534;2022-10-23T04:57:02;11.50;99.90
13944;DHT22;7044;53.286;8.534;2022-10-23T04:59:29;11.40;99.90
13944;DHT22;7044;53.286;8.534;2022-10-23T05:01:57;11.30;99.90
13944;DHT22;7044;53.286;8.534;2022-10-23T05:04:24;11.40;99.90
13944;DHT22;7044;53.286;8.534;2022-10-23T05:06:50;11.60;99.90
13944;DHT22;7044;53.286;8.534;2022-10-23T05:09:17;11.50;99.90
13944;DHT22;7044;53.286;8.534;2022-10-23T05:11:44;11.60;99.90
13944;DHT22;7044;53.286;8.534;2022-10-23T05:14:11;11.40;99.90
13944;DHT22;7044;53.286;8.534;2022-10-23T05:16:42;11.50;99.90
13944;DHT22;7044;53.286;8.534;2022-10-23T05:19:14;11.50;99.90
13944;DHT22;7044;53.286;8.534;2022-10-23T05:21:44;11.50;99.90
13944;DHT22;7044;53.286;8.534;2022-10-23T05:24:12;11.40;99.90
13944;DHT22;7044;53.286;8.534;2022-10-23T05:26:39;11.30;99.90
13944;DHT22;7044;53.286;8.534;2022-10-23T05:29:05;11.20;99.90
13944;DHT22;7044;53.286;8.534;2022-10-23T05:31:33;11.20;99.90
13944;DHT22;7044;53.286;8.534;2022-10-23T05:34:01;11.20;99.90
13944;DHT22;7044;53.286;8.534;2022-10-23T05:36:29;11.20;99.90
13944;DHT22;7044;53.286;8.534;2022-10-23T05:38:57;11.20;99.90
13944;DHT22;7044;53.286;8.534;2022-10-23T05:41:24;11.20;99.90
13944;DHT22;7044;53.286;8.534;2022-10-23T05:43:51;11.20;99.90
13944;DHT22;7044;53.286;8.534;2022-10-23T05:46:18;11.20;99.90
13944;DHT22;7044;53.286;8.534;2022-10-23T05:48:49;11.20;99.90
13944;DHT22;7044;53.286;8.534;2022-10-23T05:51:15;11.20;99.90
13944;DHT22;7044;53.286;8.534;2022-10-23T05:53:47;11.10;99.90
13944;DHT22;7044;53.286;8.534;2022-10-23T05:56:14;11.20;99.90
13944;DHT22;7044;53.286;8.534;2022-10-23T05:58:42;11.40;99.90
13944;DHT22;7044;53.286;8.534;2022-10-23T06:01:10;11.40;99.90
13944;DHT22;7044;53.286;8.534;2022-10-23T06:03:38;11.50;99.90
13944;DHT22;7044;53.286;8.534;2022-10-23T06:06:06;11.50;99.90
13944;DHT22;7044;53.286;8.534;2022-10-23T06:08:33;11.50;99.90
13944;DHT22;7044;53.286;8.534;2022-10-23T06:11:06;11.50;99.90
13944;DHT22;7044;53.286;8.534;2022-10-23T06:13:33;11.50;99.90
13944;DHT22;7044;53.286;8.534;2022-10-23T06:16:07;11.50;99.90
13944;DHT22;7044;53.286;8.534;2022-10-23T06:18:34;11.50;99.90
13944;DHT22;7044;53.286;8.534;2022-10-23T06:21:01;11.60;99.90
13944;DHT22;7044;53.286;8.534;2022-10-23T06:23:29;11.60;99.90
13944;DHT22;7044;53.286;8.534;2022-10-23T06:25:56;11.60;99.90
13944;DHT22;7044;53.286;8.534;2022-10-23T06:28:25;11.60;99.90
13944;DHT22;7044;53.286;8.534;2022-10-23T06:30:52;11.50;99.90
13944;DHT22;7044;53.286;8.534;2022-10-23T06:33:18;11.50;99.90
13944;DHT22;7044;53.286;8.534;2022-10-23T06:35:45;11.40;99.90
13944;DHT22;7044;53.286;8.534;2022-10-23T06:38:12;11.50;99.90
13944;DHT22;7044;53.286;8.534;2022-10-23T06:40:40;11.50;99.90
13944;DHT22;7044;53.286;8.534;2022-10-23T06:43:07;11.50;99.90
13944;DHT22;7044;53.286;8.534;2022-10-23T06:45:35;11.40;99.90
13944;DHT22;7044;53.286;8.534;2022-10-23T06:48:02;11.60;99.90
13944;DHT22;7044;53.286;8.534;2022-10-23T06:50:29;11.60;99.90
13944;DHT22;7044;53.286;8.534;2022-10-23T06:52:56;11.60;99.90
13944;DHT22;7044;53.286;8.534;2022-10-23T06:55:23;11.60;99.90
13944;DHT22;7044;53.286;8.534;2022-10-23T06:57:50;11.60;99.90
13944;DHT22;7044;53.286;8.534;2022-10-23T07:00:17;11.60;99.90
13944;DHT22;7044;53.286;8.534;2022-10-23T07:02:47;11.70;99.90
13944;DHT22;7044;53.286;8.534;2022-10-23T07:05:14;11.70;99.90
13944;DHT22;7044;53.286;8.534;2022-10-23T07:07:41;11.70;99.90
13944;DHT22;7044;53.286;8.534;2022-10-23T07:10:08;11.70;99.90
13944;DHT22;7044;53.286;8.534;2022-10-23T07:12:35;11.80;99.90
13944;DHT22;7044;53.286;8.534;2022-10-23T07:15:01;11.80;99.90
13944;DHT22;7044;53.286;8.534;2022-10-23T07:17:28;11.90;99.90
13944;DHT22;7044;53.286;8.534;2022-10-23T07:19:56;11.90;99.90
13944;DHT22;7044;53.286;8.534;2022-10-23T07:22:23;12.00;99.90
13944;DHT22;7044;53.286;8.534;2022-10-23T07:24:50;11.90;99.90
13944;DHT22;7044;53.286;8.534;2022-10-23T07:27:17;12.00;99.90
13944;DHT22;7044;53.286;8.534;2022-10-23T07:29:43;12.00;99.90
13944;DHT22;7044;53.286;8.534;2022-10-23T07:32:10;12.10;99.90
13944;DHT22;7044;53.286;8.534;2022-10-23T07:34:37;12.20;99.90
13944;DHT22;7044;53.286;8.534;2022-10-23T07:37:05;12.20;99.90
13944;DHT22;7044;53.286;8.534;2022-10-23T07:39:32;12.20;99.90
13944;DHT22;7044;53.286;8.534;2022-10-23T07:41:59;12.30;99.90
13944;DHT22;7044;53.286;8.534;2022-10-23T07:44:26;12.40;99.90
13944;DHT22;7044;53.286;8.534;2022-10-23T07:46:52;12.40;99.90
13944;DHT22;7044;53.286;8.534;2022-10-23T07:49:19;12.40;99.90
13944;DHT22;7044;53.286;8.534;2022-10-23T07:51:46;12.50;99.90
13944;DHT22;7044;53.286;8.534;2022-10-23T07:54:14;12.50;99.90
13944;DHT22;7044;53.286;8.534;2022-10-23T07:56:41;12.50;99.90
13944;DHT22;7044;53.286;8.534;2022-10-23T07:59:10;12.60;99.90
13944;DHT22;7044;53.286;8.534;2022-10-23T08:01:38;12.60;99.90
13944;DHT22;7044;53.286;8.534;2022-10-23T08:04:05;12.70;99.90
13944;DHT22;7044;53.286;8.534;2022-10-23T08:06:32;12.70;99.90
13944;DHT22;7044;53.286;8.534;2022-10-23T08:08:59;12.70;99.90
13944;DHT22;7044;53.286;8.534;2022-10-23T08:11:28;12.80;99.90
13944;DHT22;7044;53.286;8.534;2022-10-23T08:14:00;12.90;99.90
13944;DHT22;7044;53.286;8.534;2022-10-23T08:16:29;12.90;99.90
13944;DHT22;7044;53.286;8.534;2022-10-23T08:18:56;13.00;99.90
13944;DHT22;7044;53.286;8.534;2022-10-23T08:21:23;13.00;99.90
13944;DHT22;7044;53.286;8.534;2022-10-23T08:23:52;13.00;99.90
13944;DHT22;7044;53.286;8.534;2022-10-23T08:26:19;13.10;99.90
13944;DHT22;7044;53.286;8.534;2022-10-23T08:28:47;13.10;99.90
13944;DHT22;7044;53.286;8.534;2022-10-23T08:31:15;13.10;99.90
13944;DHT22;7044;53.286;8.534;2022-10-23T08:33:43;13.20;99.90
13944;DHT22;7044;53.286;8.534;2022-10-23T08:36:16;13.20;99.90
13944;DHT22;7044;53.286;8.534;2022-10-23T08:38:43;13.30;99.90
13944;DHT22;7044;53.286;8.534;2022-10-23T08:41:17;13.30;99.90
13944;DHT22;7044;53.286;8.534;2022-10-23T08:43:52;13.30;99.90
13944;DHT22;7044;53.286;8.534;2022-10-23T08:46:24;13.40;99.90
13944;DHT22;7044;53.286;8.534;2022-10-23T08:48:55;13.40;99.90
13944;DHT22;7044;53.286;8.534;2022-10-23T08:51:28;13.40;99.90
13944;DHT22;7044;53.286;8.534;2022-10-23T08:54:04;13.40;99.90
13944;DHT22;7044;53.286;8.534;2022-10-23T08:56:35;13.40;99.90
13944;DHT22;7044;53.286;8.534;2022-10-23T08:59:10;13.50;99.90
13944;DHT22;7044;53.286;8.534;2022-10-23T09:01:41;13.50;99.90
13944;DHT22;7044;53.286;8.534;2022-10-23T09:04:11;13.50;99.90
13944;DHT22;7044;53.286;8.534;2022-10-23T09:06:41;13.60;99.90
13944;DHT22;7044;53.286;8.534;2022-10-23T09:09:49;13.70;99.90
13944;DHT22;7044;53.286;8.534;2022-10-23T09:12:21;13.70;99.90
13944;DHT22;7044;53.286;8.534;2022-10-23T09:17:37;13.70;99.90
13944;DHT22;7044;53.286;8.534;2022-10-23T09:20:15;13.80;99.90
13944;DHT22;7044;53.286;8.534;2022-10-23T09:22:44;13.80;99.90
13944;DHT22;7044;53.286;8.534;2022-10-23T09:25:17;13.90;99.90
13944;DHT22;7044;53.286;8.534;2022-10-23T09:27:46;13.90;99.90
13944;DHT22;7044;53.286;8.534;2022-10-23T09:30:27;14.00;99.90
13944;DHT22;7044;53.286;8.534;2022-10-23T09:32:54;14.00;99.90
13944;DHT22;7044;53.286;8.534;2022-10-23T09:35:22;14.00;99.90
13944;DHT22;7044;53.286;8.534;2022-10-23T09:37:50;14.10;99.90
13944;DHT22;7044;53.286;8.534;2022-10-23T09:40:24;14.10;99.90
13944;DHT22;7044;53.286;8.534;2022-10-23T09:42:56;14.10;99.90
13944;DHT22;7044;53.286;8.534;2022-10-23T09:45:27;14.20;99.90
13944;DHT22;7044;53.286;8.534;2022-10-23T09:48:14;14.20;99.90
13944;DHT22;7044;53.286;8.534;2022-10-23T09:50:49;14.20;99.90
13944;DHT22;7044;53.286;8.534;2022-10-23T09:53:18;14.30;99.90
13944;DHT22;7044;53.286;8.534;2022-10-23T09:55:52;14.30;99.90
13944;DHT22;7044;53.286;8.534;2022-10-23T09:58:25;14.30;99.90
13944;DHT22;7044;53.286;8.534;2022-10-23T10:00:54;14.30;99.90
13944;DHT22;7044;53.286;8.534;2022-10-23T10:03:22;14.40;99.90
13944;DHT22;7044;53.286;8.534;2022-10-23T10:05:57;14.40;99.90
13944;DHT22;7044;53.286;8.534;2022-10-23T10:08:38;14.40;99.90
13944;DHT22;7044;53.286;8.534;2022-10-23T10:11:13;14.50;99.90
13944;DHT22;7044;53.286;8.534;2022-10-23T10:13:57;14.50;99.90
13944;DHT22;7044;53.286;8.534;2022-10-23T10:16:35;14.50;99.90
13944;DHT22;7044;53.286;8.534;2022-10-23T10:19:13;14.50;99.90
13944;DHT22;7044;53.286;8.534;2022-10-23T10:21:47;14.50;99.90
13944;DHT22;7044;53.286;8.534;2022-10-23T10:24:21;14.50;99.90
13944;DHT22;7044;53.286;8.534;2022-10-23T10:26:57;14.50;99.90
13944;DHT22;7044;53.286;8.534;2022-10-23T10:29:44;14.50;99.90
13944;DHT22;7044;53.286;8.534;2022-10-23T10:32:25;14.60;99.90
13944;DHT22;7044;53.286;8.534;2022-10-23T10:35:02;14.60;99.90
13944;DHT22;7044;53.286;8.534;2022-10-23T10:37:42;14.60;99.90
13944;DHT22;7044;53.286;8.534;2022-10-23T10:40:17;14.60;99.90
13944;DHT22;7044;53.286;8.534;2022-10-23T10:43:01;14.60;99.90
13944;DHT22;7044;53.286;8.534;2022-10-23T10:45:34;14.60;99.90
13944;DHT22;7044;53.286;8.534;2022-10-23T10:48:19;14.60;99.90
13944;DHT22;7044;53.286;8.534;2022-10-23T10:50:52;14.70;99.90
13944;DHT22;7044;53.286;8.534;2022-10-23T10:53:29;14.80;99.90
13944;DHT22;7044;53.286;8.534;2022-10-23T10:55:58;14.80;99.90
13944;DHT22;7044;53.286;8.534;2022-10-23T10:58:32;14.90;99.90
13944;DHT22;7044;53.286;8.534;2022-10-23T11:01:04;14.90;99.90
13944;DHT22;7044;53.286;8.534;2022-10-23T11:03:41;15.00;99.90
13944;DHT22;7044;53.286;8.534;2022-10-23T11:06:14;15.00;99.90
13944;DHT22;7044;53.286;8.534;2022-10-23T11:08:42;15.00;99.90
13944;DHT22;7044;53.286;8.534;2022-10-23T11:11:14;15.10;99.90
13944;DHT22;7044;53.286;8.534;2022-10-23T11:13:43;15.20;99.90
13944;DHT22;7044;53.286;8.534;2022-10-23T11:16:13;15.20;99.90
13944;DHT22;7044;53.286;8.534;2022-10-23T11:18:47;15.20;99.90
13944;DHT22;7044;53.286;8.534;2022-10-23T11:21:24;15.20;99.90
13944;DHT22;7044;53.286;8.534;2022-10-23T11:26:51;15.30;99.90
13944;DHT22;7044;53.286;8.534;2022-10-23T11:29:41;15.30;99.90
13944;DHT22;7044;53.286;8.534;2022-10-23T11:32:36;15.40;99.90
13944;DHT22;7044;53.286;8.534;2022-10-23T11:35:21;15.30;99.90
13944;DHT22;7044;53.286;8.534;2022-10-23T11:38:03;15.30;99.90
13944;DHT22;7044;53.286;8.534;2022-10-23T11:40:33;15.30;99.90
13944;DHT22;7044;53.286;8.534;2022-10-23T11:43:00;15.40;99.90
13944;DHT22;7044;53.286;8.534;2022-10-23T11:45:33;15.40;99.90
13944;DHT22;7044;53.286;8.534;2022-10-23T11:48:01;15.40;99.90
13944;DHT22;7044;53.286;8.534;2022-10-23T11:50:32;15.40;99.90
13944;DHT22;7044;53.286;8.534;2022-10-23T11:53:02;15.50;99.90
13944;DHT22;7044;53.286;8.534;2022-10-23T11:55:32;15.50;99.90
13944;DHT22;7044;53.286;8.534;2022-10-23T11:58:16;15.50;99.90
13944;DHT22;7044;53.286;8.534;2022-10-23T12:00:56;15.50;99.90
13944;DHT22;7044;53.286;8.534;2022-10-23T12:03:33;15.50;99.90
13944;DHT22;7044;53.286;8.534;2022-10-23T12:06:13;15.50;99.90
13944;DHT22;7044;53.286;8.534;2022-10-23T12:08:42;15.50;99.90
13944;DHT22;7044;53.286;8.534;2022-10-23T12:11:27;15.50;99.90
13944;DHT22;7044;53.286;8.534;2022-10-23T12:13:54;15.50;99.90
13944;DHT22;7044;53.286;8.534;2022-10-23T12:16:21;15.50;99.90
13944;DHT22;7044;53.286;8.534;2022-10-23T12:19:14;15.50;99.90
13944;DHT22;7044;53.286;8.534;2022-10-23T12:21:44;15.50;99.90
13944;DHT22;7044;53.286;8.534;2022-10-23T12:24:23;15.50;99.90
13944;DHT22;7044;53.286;8.534;2022-10-23T12:27:15;15.60;99.90
13944;DHT22;7044;53.286;8.534;2022-10-23T12:29:55;15.60;99.90
13944;DHT22;7044;53.286;8.534;2022-10-23T12:32:47;15.60;99.90
13944;DHT22;7044;53.286;8.534;2022-10-23T12:35:26;15.70;99.90
13944;DHT22;7044;53.286;8.534;2022-10-23T12:38:11;15.70;99.90
13944;DHT22;7044;53.286;8.534;2022-10-23T12:40:39;15.80;99.90
13944;DHT22;7044;53.286;8.534;2022-10-23T12:43:20;15.80;99.90
13944;DHT22;7044;53.286;8.534;2022-10-23T12:45:48;15.80;99.90
13944;DHT22;7044;53.286;8.534;2022-10-23T12:48:18;15.80;99.90
13944;DHT22;7044;53.286;8.534;2022-10-23T12:50:48;15.80;99.90
13944;DHT22;7044;53.286;8.534;2022-10-23T12:53:18;15.80;99.90
13944;DHT22;7044;53.286;8.534;2022-10-23T12:55:48;15.80;99.90
13944;DHT22;7044;53.286;8.534;2022-10-23T12:58:21;15.80;99.90
13944;DHT22;7044;53.286;8.534;2022-10-23T13:00:53;15.80;99.90
13944;DHT22;7044;53.286;8.534;2022-10-23T13:03:22;15.80;99.90
13944;DHT22;7044;53.286;8.534;2022-10-23T13:05:51;15.90;99.90
13944;DHT22;7044;53.286;8.534;2022-10-23T13:08:20;15.80;99.90
13944;DHT22;7044;53.286;8.534;2022-10-23T13:10:48;15.90;99.90
13944;DHT22;7044;53.286;8.534;2022-10-23T13:13:20;15.90;99.90
13944;DHT22;7044;53.286;8.534;2022-10-23T13:15:48;15.90;99.90
13944;DHT22;7044;53.286;8.534;2022-10-23T13:18:16;15.90;99.90
13944;DHT22;7044;53.286;8.534;2022-10-23T13:20:55;15.90;99.90
13944;DHT22;7044;53.286;8.534;2022-10-23T13:23:28;15.90;99.90
13944;DHT22;7044;53.286;8.534;2022-10-23T13:25:58;15.90;99.90
13944;DHT22;7044;53.286;8.534;2022-10-23T13:28:26;15.90;99.90
13944;DHT22;7044;53.286;8.534;2022-10-23T13:31:26;15.90;99.90
13944;DHT22;7044;53.286;8.534;2022-10-23T13:34:15;15.90;99.90
13944;DHT22;7044;53.286;8.534;2022-10-23T13:36:51;15.90;99.90
13944;DHT22;7044;53.286;8.534;2022-10-23T13:39:23;15.90;99.90
13944;DHT22;7044;53.286;8.534;2022-10-23T13:41:50;15.90;99.90
13944;DHT22;7044;53.286;8.534;2022-10-23T13:44:18;15.90;99.90
13944;DHT22;7044;53.286;8.534;2022-10-23T13:46:46;15.90;99.90
13944;DHT22;7044;53.286;8.534;2022-10-23T13:49:13;15.80;99.90
13944;DHT22;7044;53.286;8.534;2022-10-23T13:51:42;15.90;99.90
13944;DHT22;7044;53.286;8.534;2022-10-23T13:54:14;15.90;99.90
13944;DHT22;7044;53.286;8.534;2022-10-23T13:56:42;15.90;99.90
13944;DHT22;7044;53.286;8.534;2022-10-23T13:59:10;15.90;99.90
13944;DHT22;7044;53.286;8.534;2022-10-23T14:01:37;15.90;99.90
13944;DHT22;7044;53.286;8.534;2022-10-23T14:04:05;15.90;99.90
13944;DHT22;7044;53.286;8.534;2022-10-23T14:06:32;15.90;99.90
13944;DHT22;7044;53.286;8.534;2022-10-23T14:08:59;15.90;99.90
13944;DHT22;7044;53.286;8.534;2022-10-23T14:11:26;15.90;99.90
13944;DHT22;7044;53.286;8.534;2022-10-23T14:13:54;15.90;99.90
13944;DHT22;7044;53.286;8.534;2022-10-23T14:16:21;15.90;99.90
13944;DHT22;7044;53.286;8.534;2022-10-23T14:18:48;15.90;99.90
13944;DHT22;7044;53.286;8.534;2022-10-23T14:21:17;15.90;99.90
13944;DHT22;7044;53.286;8.534;2022-10-23T14:23:46;15.90;99.90
13944;DHT22;7044;53.286;8.534;2022-10-23T14:26:15;15.90;99.90
13944;DHT22;7044;53.286;8.534;2022-10-23T14:28:42;15.90;99.90
13944;DHT22;7044;53.286;8.534;2022-10-23T14:31:13;15.90;99.90
13944;DHT22;7044;53.286;8.534;2022-10-23T14:33:40;15.90;99.90
13944;DHT22;7044;53.286;8.534;2022-10-23T14:36:07;15.90;99.90
13944;DHT22;7044;53.286;8.534;2022-10-23T14:38:35;15.90;99.90
13944;DHT22;7044;53.286;8.534;2022-10-23T14:41:03;15.90;99.90
13944;DHT22;7044;53.286;8.534;2022-10-23T14:43:34;15.90;99.90
13944;DHT22;7044;53.286;8.534;2022-10-23T14:46:07;15.90;99.90
13944;DHT22;7044;53.286;8.534;2022-10-23T14:48:36;15.90;99.90
13944;DHT22;7044;53.286;8.534;2022-10-23T14:51:05;15.80;99.90
13944;DHT22;7044;53.286;8.534;2022-10-23T14:53:32;15.80;99.90
13944;DHT22;7044;53.286;8.534;2022-10-23T14:56:03;15.80;99.90
13944;DHT22;7044;53.286;8.534;2022-10-23T14:58:30;15.80;99.90
13944;DHT22;7044;53.286;8.534;2022-10-23T15:00:57;15.80;99.90
13944;DHT22;7044;53.286;8.534;2022-10-23T15:03:24;15.80;99.90
13944;DHT22;7044;53.286;8.534;2022-10-23T15:05:53;15.80;99.90
13944;DHT22;7044;53.286;8.534;2022-10-23T15:08:21;15.80;99.90
13944;DHT22;7044;53.286;8.534;2022-10-23T15:10:48;15.80;99.90
13944;DHT22;7044;53.286;8.534;2022-10-23T15:13:15;15.70;99.90
13944;DHT22;7044;53.286;8.534;2022-10-23T15:15:43;15.70;99.90
13944;DHT22;7044;53.286;8.534;2022-10-23T15:18:10;15.70;99.90
13944;DHT22;7044;53.286;8.534;2022-10-23T15:20:36;15.70;99.90
13944;DHT22;7044;53.286;8.534;2022-10-23T15:23:04;15.70;99.90
13944;DHT22;7044;53.286;8.534;2022-10-23T15:25:31;15.70;99.90
13944;DHT22;7044;53.286;8.534;2022-10-23T15:27:58;15.70;99.90
13944;DHT22;7044;53.286;8.534;2022-10-23T15:30:25;15.70;99.90
13944;DHT22;7044;53.286;8.534;2022-10-23T15:32:52;15.70;99.90
13944;DHT22;7044;53.286;8.534;2022-10-23T15:35:18;15.60;99.90
13944;DHT22;7044;53.286;8.534;2022-10-23T15:37:45;15.60;99.90
13944;DHT22;7044;53.286;8.534;2022-10-23T15:40:13;15.70;99.90
13944;DHT22;7044;53.286;8.534;2022-10-23T15:42:40;15.60;99.90
13944;DHT22;7044;53.286;8.534;2022-10-23T15:45:09;15.60;99.90
13944;DHT22;7044;53.286;8.534;2022-10-23T15:47:36;15.60;99.90
13944;DHT22;7044;53.286;8.534;2022-10-23T15:50:03;15.60;99.90
13944;DHT22;7044;53.286;8.534;2022-10-23T15:52:30;15.60;99.90
13944;DHT22;7044;53.286;8.534;2022-10-23T15:54:57;15.60;99.90
13944;DHT22;7044;53.286;8.534;2022-10-23T15:57:25;15.60;99.90
13944;DHT22;7044;53.286;8.534;2022-10-23T15:59:52;15.60;99.90
13944;DHT22;7044;53.286;8.534;2022-10-23T16:02:19;15.50;99.90
13944;DHT22;7044;53.286;8.534;2022-10-23T16:04:46;15.10;99.90
13944;DHT22;7044;53.286;8.534;2022-10-23T16:07:13;15.40;99.90
13944;DHT22;7044;53.286;8.534;2022-10-23T16:09:40;15.50;99.90
13944;DHT22;7044;53.286;8.534;2022-10-23T16:12:07;15.50;99.90